sensor_id;sensor_type;location;lat;lon;timestamp;temperature;humidity
5842;DHT22;2947;52.276;9.946;2023-09-08T00:00:49;19.80;1.00
5842;DHT22;2947;52.276;9.946;2023-09-08T00:03:15;19.70;1.00
5842;DHT22;2947;52.276;9.946;2023-09-08T00:05:41;19.70;1.00
5842;DHT22;2947;52.276;9.946;2023-09-08T00:08:07;19.70;37.90
5842;DHT22;2947;52.276;9.946;2023-09-08T00:10:33;19.60;99.90
5842;DHT22;2947;52.276;9.946;2023-09-08T00:12:58;19.60;99.90
5842;DHT22;2947;52.276;9.946;2023-09-08T00:15:24;19.60;99.90
5842;DHT22;2947;52.276;9.946;2023-09-08T00:17:50;19.60;99.90
5842;DHT22;2947;52.276;9.946;2023-09-08T00:20:15;19.60;99.90
5842;DHT22;2947;52.276;9.946;2023-09-08T00:22:41;19.50;99.90
5842;DHT22;2947;52.276;9.946;2023-09-08T00:25:07;19.50;99.90
5842;DHT22;2947;52.276;9.946;2023-09-08T00:27:33;19.50;99.90
5842;DHT22;2947;52.276;9.946;2023-09-08T00:29:58;19.50;99.90
5842;DHT22;2947;52.276;9.946;2023-09-08T00:32:27;19.40;1.00
5842;DHT22;2947;52.276;9.946;2023-09-08T00:34:53;19.40;39.40
5842;DHT22;2947;52.276;9.946;2023-09-08T00:37:18;19.30;1.00
5842;DHT22;2947;52.276;9.946;2023-09-08T00:39:44;19.20;99.90
5842;DHT22;2947;52.276;9.946;2023-09-08T00:42:10;19.20;1.00
5842;DHT22;2947;52.276;9.946;2023-09-08T00:44:35;19.10;99.90
5842;DHT22;2947;52.276;9.946;2023-09-08T00:47:01;19.10;99.90
5842;DHT22;2947;52.276;9.946;2023-09-08T00:49:27;19.00;1.00
5842;DHT22;2947;52.276;9.946;2023-09-08T00:51:54;19.00;99.90
5842;DHT22;2947;52.276;9.946;2023-09-08T00:54:19;19.00;99.90
5842;DHT22;2947;52.276;9.946;2023-09-08T00:56:46;18.90;1.00
5842;DHT22;2947;52.276;9.946;2023-09-08T00:59:14;18.90;99.90
5842;DHT22;2947;52.276;9.946;2023-09-08T01:01:40;18.90;99.90
5842;DHT22;2947;52.276;9.946;2023-09-08T01:04:07;18.90;99.90
5842;DHT22;2947;52.276;9.946;2023-09-08T01:06:33;19.00;99.90
5842;DHT22;2947;52.276;9.946;2023-09-08T01:08:59;18.90;99.90
5842;DHT22;2947;52.276;9.946;2023-09-08T01:11:25;18.90;99.90
5842;DHT22;2947;52.276;9.946;2023-09-08T01:13:51;18.80;1.00
5842;DHT22;2947;52.276;9.946;2023-09-08T01:16:17;18.80;99.90
5842;DHT22;2947;52.276;9.946;2023-09-08T01:18:45;18.70;1.00
5842;DHT22;2947;52.276;9.946;2023-09-08T01:24:54;18.70;99.90
5842;DHT22;2947;52.276;9.946;2023-09-08T01:27:27;18.60;1.00
5842;DHT22;2947;52.276;9.946;2023-09-08T01:29:54;18.60;99.90
5842;DHT22;2947;52.276;9.946;2023-09-08T01:32:20;18.50;99.90
5842;DHT22;2947;52.276;9.946;2023-09-08T01:34:46;18.50;99.90
5842;DHT22;2947;52.276;9.946;2023-09-08T01:37:12;18.50;99.90
5842;DHT22;2947;52.276;9.946;2023-09-08T01:39:38;18.50;93.50
5842;DHT22;2947;52.276;9.946;2023-09-08T01:42:03;18.40;99.90
5842;DHT22;2947;52.276;9.946;2023-09-08T01:44:29;18.50;35.70
5842;DHT22;2947;52.276;9.946;2023-09-08T01:46:55;18.40;99.90
5842;DHT22;2947;52.276;9.946;2023-09-08T01:49:23;18.40;1.00
5842;DHT22;2947;52.276;9.946;2023-09-08T01:51:49;18.40;1.00
5842;DHT22;2947;52.276;9.946;2023-09-08T01:54:15;18.40;99.90
5842;DHT22;2947;52.276;9.946;2023-09-08T01:56:41;18.40;1.00
5842;DHT22;2947;52.276;9.946;2023-09-08T01:59:07;18.30;99.90
5842;DHT22;2947;52.276;9.946;2023-09-08T02:01:33;18.20;1.00
5842;DHT22;2947;52.276;9.946;2023-09-08T02:03:58;18.20;99.90
5842;DHT22;2947;52.276;9.946;2023-09-08T02:06:24;18.20;1.00
5842;DHT22;2947;52.276;9.946;2023-09-08T02:08:50;18.10;62.90
5842;DHT22;2947;52.276;9.946;2023-09-08T02:11:15;18.10;1.00
5842;DHT22;2947;52.276;9.946;2023-09-08T02:13:44;18.10;1.00
5842;DHT22;2947;52.276;9.946;2023-09-08T02:16:16;18.10;1.00
5842;DHT22;2947;52.276;9.946;2023-09-08T02:18:42;18.10;1.00
5842;DHT22;2947;52.276;9.946;2023-09-08T02:21:09;18.10;99.90
5842;DHT22;2947;52.276;9.946;2023-09-08T02:23:34;18.10;99.90
5842;DHT22;2947;52.276;9.946;2023-09-08T02:26:00;18.00;99.90
5842;DHT22;2947;52.276;9.946;2023-09-08T02:28:26;18.00;99.90
5842;DHT22;2947;52.276;9.946;2023-09-08T02:30:52;18.00;99.90
5842;DHT22;2947;52.276;9.946;2023-09-08T02:33:18;18.00;99.90
5842;DHT22;2947;52.276;9.946;2023-09-08T02:35:44;17.90;1.00
5842;DHT22;2947;52.276;9.946;2023-09-08T02:38:09;17.90;1.00
5842;DHT22;2947;52.276;9.946;2023-09-08T02:40:35;17.90;99.90
5842;DHT22;2947;52.276;9.946;2023-09-08T02:43:01;17.90;1.00
5842;DHT22;2947;52.276;9.946;2023-09-08T02:45:28;17.80;69.10
5842;DHT22;2947;52.276;9.946;2023-09-08T02:47:54;17.80;1.00
5842;DHT22;2947;52.276;9.946;2023-09-08T02:50:21;19.40;99.90
5842;DHT22;2947;52.276;9.946;2023-09-08T02:52:47;17.80;99.90
5842;DHT22;2947;52.276;9.946;2023-09-08T02:55:13;17.70;99.90
5842;DHT22;2947;52.276;9.946;2023-09-08T02:57:39;17.70;1.00
5842;DHT22;2947;52.276;9.946;2023-09-08T03:00:06;17.70;1.00
5842;DHT22;2947;52.276;9.946;2023-09-08T03:02:34;17.70;1.00
5842;DHT22;2947;52.276;9.946;2023-09-08T03:05:01;17.60;27.70
5842;DHT22;2947;52.276;9.946;2023-09-08T03:07:27;17.60;1.00
5842;DHT22;2947;52.276;9.946;2023-09-08T03:09:53;17.60;1.00
5842;DHT22;2947;52.276;9.946;2023-09-08T03:12:19;17.60;1.00
5842;DHT22;2947;52.276;9.946;2023-09-08T03:14:44;17.60;1.00
5842;DHT22;2947;52.276;9.946;2023-09-08T03:17:11;17.60;1.00
5842;DHT22;2947;52.276;9.946;2023-09-08T03:19:38;17.60;1.00
5842;DHT22;2947;52.276;9.946;2023-09-08T03:22:04;18.50;1.00
5842;DHT22;2947;52.276;9.946;2023-09-08T03:24:29;17.50;99.90
5842;DHT22;2947;52.276;9.946;2023-09-08T03:26:55;17.40;99.90
5842;DHT22;2947;52.276;9.946;2023-09-08T03:29:23;17.50;99.90
5842;DHT22;2947;52.276;9.946;2023-09-08T03:31:49;17.40;1.00
5842;DHT22;2947;52.276;9.946;2023-09-08T03:34:15;17.40;1.00
5842;DHT22;2947;52.276;9.946;2023-09-08T03:36:40;17.40;1.00
5842;DHT22;2947;52.276;9.946;2023-09-08T03:39:06;17.30;99.90
5842;DHT22;2947;52.276;9.946;2023-09-08T03:41:34;17.30;99.90
5842;DHT22;2947;52.276;9.946;2023-09-08T03:44:01;17.30;1.00
5842;DHT22;2947;52.276;9.946;2023-09-08T03:46:27;17.20;49.40
5842;DHT22;2947;52.276;9.946;2023-09-08T03:48:52;17.20;99.90
5842;DHT22;2947;52.276;9.946;2023-09-08T03:51:24;17.20;99.90
5842;DHT22;2947;52.276;9.946;2023-09-08T03:53:50;17.20;99.90
5842;DHT22;2947;52.276;9.946;2023-09-08T03:56:16;17.20;99.90
5842;DHT22;2947;52.276;9.946;2023-09-08T03:58:42;17.10;99.90
5842;DHT22;2947;52.276;9.946;2023-09-08T04:01:07;17.10;99.90
5842;DHT22;2947;52.276;9.946;2023-09-08T04:03:33;17.10;99.90
5842;DHT22;2947;52.276;9.946;2023-09-08T04:06:00;17.10;99.90
5842;DHT22;2947;52.276;9.946;2023-09-08T04:08:27;17.00;99.90
5842;DHT22;2947;52.276;9.946;2023-09-08T04:10:52;17.00;99.90
5842;DHT22;2947;52.276;9.946;2023-09-08T04:13:18;17.00;99.90
5842;DHT22;2947;52.276;9.946;2023-09-08T04:15:44;17.00;99.90
5842;DHT22;2947;52.276;9.946;2023-09-08T04:18:10;16.90;99.90
5842;DHT22;2947;52.276;9.946;2023-09-08T04:20:35;16.90;99.90
5842;DHT22;2947;52.276;9.946;2023-09-08T04:23:01;16.90;99.90
5842;DHT22;2947;52.276;9.946;2023-09-08T04:25:27;16.80;1.00
5842;DHT22;2947;52.276;9.946;2023-09-08T04:27:52;16.80;99.90
5842;DHT22;2947;52.276;9.946;2023-09-08T04:30:18;16.80;99.90
5842;DHT22;2947;52.276;9.946;2023-09-08T04:32:44;16.80;99.90
5842;DHT22;2947;52.276;9.946;2023-09-08T04:35:10;16.80;99.90
5842;DHT22;2947;52.276;9.946;2023-09-08T04:37:35;16.70;99.90
5842;DHT22;2947;52.276;9.946;2023-09-08T04:40:02;16.70;99.90
5842;DHT22;2947;52.276;9.946;2023-09-08T04:42:29;16.70;99.90
5842;DHT22;2947;52.276;9.946;2023-09-08T04:44:56;16.70;1.00
5842;DHT22;2947;52.276;9.946;2023-09-08T04:47:22;16.60;1.00
5842;DHT22;2947;52.276;9.946;2023-09-08T04:49:47;16.60;1.00
5842;DHT22;2947;52.276;9.946;2023-09-08T04:52:13;16.60;1.00
5842;DHT22;2947;52.276;9.946;2023-09-08T04:54:40;16.60;1.00
5842;DHT22;2947;52.276;9.946;2023-09-08T04:57:05;16.60;1.00
5842;DHT22;2947;52.276;9.946;2023-09-08T04:59:32;16.60;1.00
5842;DHT22;2947;52.276;9.946;2023-09-08T05:01:58;16.60;1.00
5842;DHT22;2947;52.276;9.946;2023-09-08T05:04:24;16.60;1.00
5842;DHT22;2947;52.276;9.946;2023-09-08T05:06:50;16.60;1.00
5842;DHT22;2947;52.276;9.946;2023-09-08T05:09:15;16.50;1.00
5842;DHT22;2947;52.276;9.946;2023-09-08T05:11:41;16.40;1.00
5842;DHT22;2947;52.276;9.946;2023-09-08T05:14:07;16.50;1.00
5842;DHT22;2947;52.276;9.946;2023-09-08T05:16:33;16.50;1.00
5842;DHT22;2947;52.276;9.946;2023-09-08T05:19:03;16.50;1.00
5842;DHT22;2947;52.276;9.946;2023-09-08T05:21:31;16.40;1.00
5842;DHT22;2947;52.276;9.946;2023-09-08T05:23:57;16.40;1.00
5842;DHT22;2947;52.276;9.946;2023-09-08T05:26:23;16.40;1.00
5842;DHT22;2947;52.276;9.946;2023-09-08T05:28:48;16.50;1.00
5842;DHT22;2947;52.276;9.946;2023-09-08T05:31:14;16.50;1.00
5842;DHT22;2947;52.276;9.946;2023-09-08T05:33:40;16.60;1.00
5842;DHT22;2947;52.276;9.946;2023-09-08T05:36:06;16.60;1.00
5842;DHT22;2947;52.276;9.946;2023-09-08T05:38:33;16.70;1.00
5842;DHT22;2947;52.276;9.946;2023-09-08T05:40:59;16.80;1.00
5842;DHT22;2947;52.276;9.946;2023-09-08T05:43:28;16.80;1.00
5842;DHT22;2947;52.276;9.946;2023-09-08T05:45:53;16.90;1.00
5842;DHT22;2947;52.276;9.946;2023-09-08T05:48:19;17.00;1.00
5842;DHT22;2947;52.276;9.946;2023-09-08T05:50:45;17.10;1.00
5842;DHT22;2947;52.276;9.946;2023-09-08T05:53:29;17.10;1.00
5842;DHT22;2947;52.276;9.946;2023-09-08T05:55:55;17.20;99.90
5842;DHT22;2947;52.276;9.946;2023-09-08T05:58:21;17.30;99.90
5842;DHT22;2947;52.276;9.946;2023-09-08T06:00:46;17.30;99.90
5842;DHT22;2947;52.276;9.946;2023-09-08T06:03:12;17.40;99.90
5842;DHT22;2947;52.276;9.946;2023-09-08T06:05:38;17.50;99.90
5842;DHT22;2947;52.276;9.946;2023-09-08T06:08:04;17.60;99.90
5842;DHT22;2947;52.276;9.946;2023-09-08T06:10:30;17.60;99.90
5842;DHT22;2947;52.276;9.946;2023-09-08T06:12:56;17.60;99.90
5842;DHT22;2947;52.276;9.946;2023-09-08T06:15:21;17.70;99.90
5842;DHT22;2947;52.276;9.946;2023-09-08T06:17:47;17.70;99.90
5842;DHT22;2947;52.276;9.946;2023-09-08T06:20:13;17.80;99.90
5842;DHT22;2947;52.276;9.946;2023-09-08T06:22:39;17.90;99.90
5842;DHT22;2947;52.276;9.946;2023-09-08T06:25:05;17.90;99.90
5842;DHT22;2947;52.276;9.946;2023-09-08T06:27:31;18.00;99.90
5842;DHT22;2947;52.276;9.946;2023-09-08T06:29:56;18.10;99.90
5842;DHT22;2947;52.276;9.946;2023-09-08T06:32:22;18.10;99.90
5842;DHT22;2947;52.276;9.946;2023-09-08T06:34:48;18.20;99.90
5842;DHT22;2947;52.276;9.946;2023-09-08T06:37:14;18.20;99.90
5842;DHT22;2947;52.276;9.946;2023-09-08T06:39:41;18.30;99.90
5842;DHT22;2947;52.276;9.946;2023-09-08T06:42:07;18.50;99.90
5842;DHT22;2947;52.276;9.946;2023-09-08T06:44:32;18.70;99.90
5842;DHT22;2947;52.276;9.946;2023-09-08T06:46:58;18.80;1.00
5842;DHT22;2947;52.276;9.946;2023-09-08T06:49:24;18.90;1.00
5842;DHT22;2947;52.276;9.946;2023-09-08T06:51:50;19.00;1.00
5842;DHT22;2947;52.276;9.946;2023-09-08T06:54:15;19.20;1.00
5842;DHT22;2947;52.276;9.946;2023-09-08T06:56:41;19.20;99.90
5842;DHT22;2947;52.276;9.946;2023-09-08T06:59:07;19.40;1.00
5842;DHT22;2947;52.276;9.946;2023-09-08T07:01:33;19.70;99.90
5842;DHT22;2947;52.276;9.946;2023-09-08T07:03:58;19.90;1.00
5842;DHT22;2947;52.276;9.946;2023-09-08T07:06:24;19.90;1.00
5842;DHT22;2947;52.276;9.946;2023-09-08T07:08:50;20.10;1.00
5842;DHT22;2947;52.276;9.946;2023-09-08T07:11:16;20.30;99.90
5842;DHT22;2947;52.276;9.946;2023-09-08T07:13:42;20.30;1.00
5842;DHT22;2947;52.276;9.946;2023-09-08T07:16:08;20.40;1.00
5842;DHT22;2947;52.276;9.946;2023-09-08T07:18:34;20.50;54.70
5842;DHT22;2947;52.276;9.946;2023-09-08T07:21:04;20.70;99.90
5842;DHT22;2947;52.276;9.946;2023-09-08T07:23:30;20.90;99.90
5842;DHT22;2947;52.276;9.946;2023-09-08T07:25:56;21.10;99.90
5842;DHT22;2947;52.276;9.946;2023-09-08T07:28:22;21.20;99.90
5842;DHT22;2947;52.276;9.946;2023-09-08T07:30:48;21.40;99.90
5842;DHT22;2947;52.276;9.946;2023-09-08T07:33:14;21.60;1.00
5842;DHT22;2947;52.276;9.946;2023-09-08T07:35:41;21.70;1.00
5842;DHT22;2947;52.276;9.946;2023-09-08T07:38:07;21.80;99.90
5842;DHT22;2947;52.276;9.946;2023-09-08T07:40:35;22.00;1.00
5842;DHT22;2947;52.276;9.946;2023-09-08T07:43:01;22.20;1.00
5842;DHT22;2947;52.276;9.946;2023-09-08T07:45:28;22.20;1.00
5842;DHT22;2947;52.276;9.946;2023-09-08T07:47:53;22.50;19.00
5842;DHT22;2947;52.276;9.946;2023-09-08T07:50:24;22.60;99.90
5842;DHT22;2947;52.276;9.946;2023-09-08T07:52:53;22.70;99.90
5842;DHT22;2947;52.276;9.946;2023-09-08T07:55:20;22.80;99.90
5842;DHT22;2947;52.276;9.946;2023-09-08T07:57:54;22.90;1.00
5842;DHT22;2947;52.276;9.946;2023-09-08T08:00:20;23.10;91.00
5842;DHT22;2947;52.276;9.946;2023-09-08T08:02:48;23.20;1.00
5842;DHT22;2947;52.276;9.946;2023-09-08T08:05:15;23.30;99.90
5842;DHT22;2947;52.276;9.946;2023-09-08T08:07:42;23.40;99.90
5842;DHT22;2947;52.276;9.946;2023-09-08T08:10:09;23.60;99.90
5842;DHT22;2947;52.276;9.946;2023-09-08T08:12:36;23.70;99.90
5842;DHT22;2947;52.276;9.946;2023-09-08T08:15:03;23.80;99.90
5842;DHT22;2947;52.276;9.946;2023-09-08T08:17:30;24.00;99.90
5842;DHT22;2947;52.276;9.946;2023-09-08T08:19:57;24.20;99.90
5842;DHT22;2947;52.276;9.946;2023-09-08T08:22:32;24.20;99.90
5842;DHT22;2947;52.276;9.946;2023-09-08T08:24:58;24.40;99.90
5842;DHT22;2947;52.276;9.946;2023-09-08T08:27:24;24.50;99.90
5842;DHT22;2947;52.276;9.946;2023-09-08T08:29:50;24.70;99.90
5842;DHT22;2947;52.276;9.946;2023-09-08T08:32:17;24.70;99.90
5842;DHT22;2947;52.276;9.946;2023-09-08T08:34:43;24.90;99.90
5842;DHT22;2947;52.276;9.946;2023-09-08T08:37:10;25.10;99.90
5842;DHT22;2947;52.276;9.946;2023-09-08T08:39:36;25.20;62.90
5842;DHT22;2947;52.276;9.946;2023-09-08T08:42:10;25.30;1.00
5842;DHT22;2947;52.276;9.946;2023-09-08T08:44:38;25.50;1.00
5842;DHT22;2947;52.276;9.946;2023-09-08T08:47:06;25.60;1.00
5842;DHT22;2947;52.276;9.946;2023-09-08T08:49:33;25.60;1.00
5842;DHT22;2947;52.276;9.946;2023-09-08T08:52:00;25.80;1.00
5842;DHT22;2947;52.276;9.946;2023-09-08T08:54:29;26.60;1.00
5842;DHT22;2947;52.276;9.946;2023-09-08T08:56:55;26.00;1.00
5842;DHT22;2947;52.276;9.946;2023-09-08T08:59:21;26.10;1.00
5842;DHT22;2947;52.276;9.946;2023-09-08T09:01:48;26.30;1.00
5842;DHT22;2947;52.276;9.946;2023-09-08T09:04:16;26.50;1.00
5842;DHT22;2947;52.276;9.946;2023-09-08T09:06:42;26.60;1.00
5842;DHT22;2947;52.276;9.946;2023-09-08T09:09:08;26.70;1.00
5842;DHT22;2947;52.276;9.946;2023-09-08T09:11:36;26.80;1.00
5842;DHT22;2947;52.276;9.946;2023-09-08T09:14:02;27.00;1.00
5842;DHT22;2947;52.276;9.946;2023-09-08T09:16:29;27.20;1.00
5842;DHT22;2947;52.276;9.946;2023-09-08T09:18:57;27.30;1.00
5842;DHT22;2947;52.276;9.946;2023-09-08T09:21:41;27.40;99.90
5842;DHT22;2947;52.276;9.946;2023-09-08T09:24:14;27.50;99.90
5842;DHT22;2947;52.276;9.946;2023-09-08T09:26:43;27.70;99.90
5842;DHT22;2947;52.276;9.946;2023-09-08T09:29:13;27.80;99.90
5842;DHT22;2947;52.276;9.946;2023-09-08T09:34:29;28.00;99.90
5842;DHT22;2947;52.276;9.946;2023-09-08T09:36:55;28.10;99.90
5842;DHT22;2947;52.276;9.946;2023-09-08T09:39:23;28.20;99.90
5842;DHT22;2947;52.276;9.946;2023-09-08T09:41:56;28.30;99.90
5842;DHT22;2947;52.276;9.946;2023-09-08T09:44:23;28.30;99.90
5842;DHT22;2947;52.276;9.946;2023-09-08T09:46:53;28.50;99.90
5842;DHT22;2947;52.276;9.946;2023-09-08T09:49:19;28.50;99.90
5842;DHT22;2947;52.276;9.946;2023-09-08T09:51:49;28.70;99.90
5842;DHT22;2947;52.276;9.946;2023-09-08T09:54:16;28.80;99.90
5842;DHT22;2947;52.276;9.946;2023-09-08T09:56:43;29.00;99.90
5842;DHT22;2947;52.276;9.946;2023-09-08T09:59:11;29.10;99.90
5842;DHT22;2947;52.276;9.946;2023-09-08T10:01:41;29.20;99.90
5842;DHT22;2947;52.276;9.946;2023-09-08T10:04:08;29.20;99.90
5842;DHT22;2947;52.276;9.946;2023-09-08T10:06:36;29.40;99.90
5842;DHT22;2947;52.276;9.946;2023-09-08T10:09:05;29.30;99.90
5842;DHT22;2947;52.276;9.946;2023-09-08T10:11:48;29.40;99.90
5842;DHT22;2947;52.276;9.946;2023-09-08T10:14:15;29.50;99.90
5842;DHT22;2947;52.276;9.946;2023-09-08T10:16:44;29.60;99.90
5842;DHT22;2947;52.276;9.946;2023-09-08T10:19:15;29.70;99.90
5842;DHT22;2947;52.276;9.946;2023-09-08T10:21:48;29.90;99.90
5842;DHT22;2947;52.276;9.946;2023-09-08T10:24:34;29.90;99.90
5842;DHT22;2947;52.276;9.946;2023-09-08T10:27:12;30.00;99.90
5842;DHT22;2947;52.276;9.946;2023-09-08T10:29:39;30.10;99.90
5842;DHT22;2947;52.276;9.946;2023-09-08T10:32:06;30.20;99.90
5842;DHT22;2947;52.276;9.946;2023-09-08T10:34:35;30.40;99.90
5842;DHT22;2947;52.276;9.946;2023-09-08T10:37:01;30.50;99.90
5842;DHT22;2947;52.276;9.946;2023-09-08T10:39:36;30.60;99.90
5842;DHT22;2947;52.276;9.946;2023-09-08T10:42:31;30.60;99.90
5842;DHT22;2947;52.276;9.946;2023-09-08T10:50:19;30.90;99.90
5842;DHT22;2947;52.276;9.946;2023-09-08T10:52:53;31.00;99.90
5842;DHT22;2947;52.276;9.946;2023-09-08T10:55:40;31.10;99.90
5842;DHT22;2947;52.276;9.946;2023-09-08T10:58:20;31.20;99.90
5842;DHT22;2947;52.276;9.946;2023-09-08T11:00:59;31.30;99.90
5842;DHT22;2947;52.276;9.946;2023-09-08T11:03:47;31.20;99.90
5842;DHT22;2947;52.276;9.946;2023-09-08T11:06:19;31.30;99.90
5842;DHT22;2947;52.276;9.946;2023-09-08T11:08:48;31.40;99.90
5842;DHT22;2947;52.276;9.946;2023-09-08T11:11:15;31.60;99.90
5842;DHT22;2947;52.276;9.946;2023-09-08T11:13:41;31.60;99.90
5842;DHT22;2947;52.276;9.946;2023-09-08T11:16:11;31.70;99.90
5842;DHT22;2947;52.276;9.946;2023-09-08T11:18:37;31.80;99.90
5842;DHT22;2947;52.276;9.946;2023-09-08T11:21:08;31.90;99.90
5842;DHT22;2947;52.276;9.946;2023-09-08T11:23:35;32.00;99.90
5842;DHT22;2947;52.276;9.946;2023-09-08T11:26:01;32.10;99.90
5842;DHT22;2947;52.276;9.946;2023-09-08T11:28:27;32.00;99.90
5842;DHT22;2947;52.276;9.946;2023-09-08T11:30:54;32.10;99.90
5842;DHT22;2947;52.276;9.946;2023-09-08T11:33:21;32.20;99.90
5842;DHT22;2947;52.276;9.946;2023-09-08T11:35:54;32.20;99.90
5842;DHT22;2947;52.276;9.946;2023-09-08T11:38:27;32.20;99.90
5842;DHT22;2947;52.276;9.946;2023-09-08T11:40:56;32.20;99.90
5842;DHT22;2947;52.276;9.946;2023-09-08T11:43:23;32.20;99.90
5842;DHT22;2947;52.276;9.946;2023-09-08T11:45:49;32.30;99.90
5842;DHT22;2947;52.276;9.946;2023-09-08T11:48:15;32.30;99.90
5842;DHT22;2947;52.276;9.946;2023-09-08T11:50:42;32.10;99.90
5842;DHT22;2947;52.276;9.946;2023-09-08T11:53:08;32.10;99.90
5842;DHT22;2947;52.276;9.946;2023-09-08T11:55:34;32.20;99.90
5842;DHT22;2947;52.276;9.946;2023-09-08T11:58:03;32.40;99.90
5842;DHT22;2947;52.276;9.946;2023-09-08T12:00:29;32.40;99.90
5842;DHT22;2947;52.276;9.946;2023-09-08T12:02:55;32.30;99.90
5842;DHT22;2947;52.276;9.946;2023-09-08T12:05:36;32.30;99.90
5842;DHT22;2947;52.276;9.946;2023-09-08T12:08:03;32.20;99.90
5842;DHT22;2947;52.276;9.946;2023-09-08T12:10:42;32.40;99.90
5842;DHT22;2947;52.276;9.946;2023-09-08T12:13:09;32.60;99.90
5842;DHT22;2947;52.276;9.946;2023-09-08T12:15:41;32.50;99.90
5842;DHT22;2947;52.276;9.946;2023-09-08T12:18:12;32.50;99.90
5842;DHT22;2947;52.276;9.946;2023-09-08T12:20:41;32.60;99.90
5842;DHT22;2947;52.276;9.946;2023-09-08T12:23:21;32.70;99.90
5842;DHT22;2947;52.276;9.946;2023-09-08T12:25:49;32.70;99.90
5842;DHT22;2947;52.276;9.946;2023-09-08T12:28:17;32.90;99.90
5842;DHT22;2947;52.276;9.946;2023-09-08T12:30:44;32.90;99.90
5842;DHT22;2947;52.276;9.946;2023-09-08T12:33:10;32.90;99.90
5842;DHT22;2947;52.276;9.946;2023-09-08T12:35:36;33.20;99.90
5842;DHT22;2947;52.276;9.946;2023-09-08T12:38:03;33.10;99.90
5842;DHT22;2947;52.276;9.946;2023-09-08T12:40:34;33.10;99.90
5842;DHT22;2947;52.276;9.946;2023-09-08T12:43:02;33.30;99.90
5842;DHT22;2947;52.276;9.946;2023-09-08T12:45:30;33.10;99.90
5842;DHT22;2947;52.276;9.946;2023-09-08T12:47:59;32.90;99.90
5842;DHT22;2947;52.276;9.946;2023-09-08T12:50:27;33.00;99.90
5842;DHT22;2947;52.276;9.946;2023-09-08T12:52:53;32.80;99.90
5842;DHT22;2947;52.276;9.946;2023-09-08T12:55:19;33.00;99.90
5842;DHT22;2947;52.276;9.946;2023-09-08T12:57:45;33.10;99.90
5842;DHT22;2947;52.276;9.946;2023-09-08T13:00:12;33.10;99.90
5842;DHT22;2947;52.276;9.946;2023-09-08T13:02:40;33.20;99.90
5842;DHT22;2947;52.276;9.946;2023-09-08T13:05:07;33.20;99.90
5842;DHT22;2947;52.276;9.946;2023-09-08T13:07:33;32.90;99.90
5842;DHT22;2947;52.276;9.946;2023-09-08T13:09:59;32.70;99.90
5842;DHT22;2947;52.276;9.946;2023-09-08T13:12:25;32.70;99.90
5842;DHT22;2947;52.276;9.946;2023-09-08T13:14:50;32.90;99.90
5842;DHT22;2947;52.276;9.946;2023-09-08T13:17:16;32.70;99.90
5842;DHT22;2947;52.276;9.946;2023-09-08T13:19:43;32.80;99.90
5842;DHT22;2947;52.276;9.946;2023-09-08T13:22:09;32.60;99.90
5842;DHT22;2947;52.276;9.946;2023-09-08T13:24:36;32.40;99.90
5842;DHT22;2947;52.276;9.946;2023-09-08T13:27:02;32.40;99.90
5842;DHT22;2947;52.276;9.946;2023-09-08T13:29:28;32.30;99.90
5842;DHT22;2947;52.276;9.946;2023-09-08T13:31:54;32.20;99.90
5842;DHT22;2947;52.276;9.946;2023-09-08T13:34:21;32.20;99.90
5842;DHT22;2947;52.276;9.946;2023-09-08T13:36:47;32.20;99.90
5842;DHT22;2947;52.276;9.946;2023-09-08T13:39:13;32.10;99.90
5842;DHT22;2947;52.276;9.946;2023-09-08T13:41:55;32.10;99.90
5842;DHT22;2947;52.276;9.946;2023-09-08T13:44:22;33.20;99.90
5842;DHT22;2947;52.276;9.946;2023-09-08T13:46:53;31.90;99.90
5842;DHT22;2947;52.276;9.946;2023-09-08T13:49:19;31.90;99.90
5842;DHT22;2947;52.276;9.946;2023-09-08T13:51:46;31.70;99.90
5842;DHT22;2947;52.276;9.946;2023-09-08T13:54:12;32.70;99.90
5842;DHT22;2947;52.276;9.946;2023-09-08T13:56:39;31.50;99.90
5842;DHT22;2947;52.276;9.946;2023-09-08T13:59:06;31.60;99.90
5842;DHT22;2947;52.276;9.946;2023-09-08T14:01:33;31.50;99.90
5842;DHT22;2947;52.276;9.946;2023-09-08T14:04:00;31.50;99.90
5842;DHT22;2947;52.276;9.946;2023-09-08T14:06:28;31.50;99.90
5842;DHT22;2947;52.276;9.946;2023-09-08T14:08:53;31.50;99.90
5842;DHT22;2947;52.276;9.946;2023-09-08T14:11:20;31.50;99.90
5842;DHT22;2947;52.276;9.946;2023-09-08T14:13:46;31.50;99.90
5842;DHT22;2947;52.276;9.946;2023-09-08T14:16:12;31.40;99.90
5842;DHT22;2947;52.276;9.946;2023-09-08T14:18:38;31.40;99.90
5842;DHT22;2947;52.276;9.946;2023-09-08T14:21:05;31.40;99.90
5842;DHT22;2947;52.276;9.946;2023-09-08T14:23:30;31.40;99.90
5842;DHT22;2947;52.276;9.946;2023-09-08T14:25:56;31.90;99.90
5842;DHT22;2947;52.276;9.946;2023-09-08T14:28:22;31.30;99.90
5842;DHT22;2947;52.276;9.946;2023-09-08T14:30:49;31.20;99.90
5842;DHT22;2947;52.276;9.946;2023-09-08T14:33:16;31.20;99.90
5842;DHT22;2947;52.276;9.946;2023-09-08T14:35:43;31.10;99.90
5842;DHT22;2947;52.276;9.946;2023-09-08T14:38:09;31.10;99.90
5842;DHT22;2947;52.276;9.946;2023-09-08T14:40:35;31.10;99.90
5842;DHT22;2947;52.276;9.946;2023-09-08T14:43:02;31.00;99.90
5842;DHT22;2947;52.276;9.946;2023-09-08T14:45:28;31.00;99.90
5842;DHT22;2947;52.276;9.946;2023-09-08T14:47:54;30.90;99.90
5842;DHT22;2947;52.276;9.946;2023-09-08T14:50:19;31.00;99.90
5842;DHT22;2947;52.276;9.946;2023-09-08T14:52:45;31.00;99.90
5842;DHT22;2947;52.276;9.946;2023-09-08T14:55:11;30.80;99.90
5842;DHT22;2947;52.276;9.946;2023-09-08T14:57:36;31.80;99.90
5842;DHT22;2947;52.276;9.946;2023-09-08T15:00:03;30.90;99.90
5842;DHT22;2947;52.276;9.946;2023-09-08T15:02:33;30.80;99.90
5842;DHT22;2947;52.276;9.946;2023-09-08T15:04:59;30.80;99.90
5842;DHT22;2947;52.276;9.946;2023-09-08T15:07:24;30.80;99.90
5842;DHT22;2947;52.276;9.946;2023-09-08T15:09:50;30.70;99.90
5842;DHT22;2947;52.276;9.946;2023-09-08T15:12:19;30.70;99.90
5842;DHT22;2947;52.276;9.946;2023-09-08T15:14:44;30.70;99.90
5842;DHT22;2947;52.276;9.946;2023-09-08T15:17:11;30.70;99.90
5842;DHT22;2947;52.276;9.946;2023-09-08T15:19:38;30.60;99.90
5842;DHT22;2947;52.276;9.946;2023-09-08T15:22:04;30.60;99.90
5842;DHT22;2947;52.276;9.946;2023-09-08T15:24:30;31.50;99.90
5842;DHT22;2947;52.276;9.946;2023-09-08T15:26:56;30.60;99.90
5842;DHT22;2947;52.276;9.946;2023-09-08T15:29:22;30.60;99.90
5842;DHT22;2947;52.276;9.946;2023-09-08T15:31:48;30.60;99.90
5842;DHT22;2947;52.276;9.946;2023-09-08T15:34:14;30.50;99.90
5842;DHT22;2947;52.276;9.946;2023-09-08T15:36:40;30.50;99.90
5842;DHT22;2947;52.276;9.946;2023-09-08T15:39:05;30.50;99.90
5842;DHT22;2947;52.276;9.946;2023-09-08T15:41:31;30.50;99.90
5842;DHT22;2947;52.276;9.946;2023-09-08T15:43:57;30.40;99.90
5842;DHT22;2947;52.276;9.946;2023-09-08T15:46:23;31.10;99.90
5842;DHT22;2947;52.276;9.946;2023-09-08T15:48:49;30.30;99.90
5842;DHT22;2947;52.276;9.946;2023-09-08T15:51:15;31.70;99.90
5842;DHT22;2947;52.276;9.946;2023-09-08T15:53:41;30.30;99.90
5842;DHT22;2947;52.276;9.946;2023-09-08T15:56:08;30.30;99.90
5842;DHT22;2947;52.276;9.946;2023-09-08T15:58:34;30.20;99.90
5842;DHT22;2947;52.276;9.946;2023-09-08T16:01:02;30.20;99.90
5842;DHT22;2947;52.276;9.946;2023-09-08T16:03:30;30.10;99.90
5842;DHT22;2947;52.276;9.946;2023-09-08T16:05:56;30.10;99.90
5842;DHT22;2947;52.276;9.946;2023-09-08T16:08:21;30.00;99.90
5842;DHT22;2947;52.276;9.946;2023-09-08T16:10:48;30.00;99.90
5842;DHT22;2947;52.276;9.946;2023-09-08T16:13:14;31.10;99.90
5842;DHT22;2947;52.276;9.946;2023-09-08T16:15:40;29.90;99.90